createdAt,value
2023-01-01T00:03:11.497Z,2.00
2023-01-01T00:08:13.380Z,1.90
2023-01-01T00:13:15.317Z,1.90
2023-01-01T00:18:17.132Z,1.90
2023-01-01T00:23:46.366Z,1.90
2023-01-01T00:28:48.439Z,1.80
2023-01-01T00:33:52.679Z,1.70
2023-01-01T00:38:54.637Z,1.70
2023-01-01T00:43:56.533Z,1.60
2023-01-01T00:48:58.504Z,1.60
2023-01-01T00:54:00.329Z,1.60
2023-01-01T00:59:02.164Z,1.70
2023-01-01T01:04:04.393Z,1.70
2023-01-01T01:09:07.533Z,1.60
2023-01-01T01:14:09.368Z,1.60
2023-01-01T01:19:15.227Z,1.50
2023-01-01T01:24:17.075Z,1.50
2023-01-01T01:29:18.907Z,1.50
2023-01-01T01:34:27.183Z,1.50
2023-01-01T01:39:29.873Z,1.50
2023-01-01T01:44:49.936Z,1.50
2023-01-01T01:50:07.434Z,1.40
2023-01-01T01:55:09.957Z,1.40
2023-01-01T02:00:12.748Z,1.40
2023-01-01T02:05:16.117Z,1.30
2023-01-01T02:10:18.152Z,1.30
2023-01-01T02:15:21.413Z,1.30
2023-01-01T02:20:51.069Z,1.30
2023-01-01T02:26:01.228Z,1.20
2023-01-01T02:31:04.371Z,1.20
2023-01-01T02:36:07.226Z,1.20
2023-01-01T02:41:39.163Z,1.10
2023-01-01T02:46:41.096Z,1.00
2023-01-01T02:52:05.553Z,1.10
2023-01-01T02:57:34.670Z,1.00
2023-01-01T03:02:53.593Z,1.00
2023-01-01T03:08:14.559Z,1.00
2023-01-01T03:13:44.843Z,1.00
2023-01-01T03:18:49.598Z,1.10
2023-01-01T03:23:54.841Z,1.10
2023-01-01T03:28:58.524Z,1.20
2023-01-01T03:34:04.069Z,1.10
2023-01-01T03:39:13.212Z,1.10
2023-01-01T03:44:24.431Z,1.10
2023-01-01T03:49:26.749Z,1.10
2023-01-01T03:54:34.195Z,1.10
2023-01-01T04:00:18.800Z,1.00
2023-01-01T04:05:21.423Z,1.00
2023-01-01T04:10:25.004Z,1.00
2023-01-01T04:15:27.920Z,0.90
2023-01-01T04:20:29.756Z,0.90
2023-01-01T04:25:31.813Z,0.90
2023-01-01T04:35:35.303Z,1.00
2023-01-01T04:40:37.254Z,1.10
2023-01-01T04:45:39.128Z,1.10
2023-01-01T04:50:40.932Z,1.10
2023-01-01T04:55:42.800Z,1.10
2023-01-01T05:00:48.781Z,1.10
2023-01-01T05:06:07.581Z,1.00
2023-01-01T05:11:13.747Z,0.80
2023-01-01T05:16:17.965Z,0.80
2023-01-01T05:21:22.587Z,0.80
2023-01-01T05:26:27.193Z,0.90
2023-01-01T05:31:31.659Z,0.90
2023-01-01T05:36:38.658Z,0.90
2023-01-01T05:41:46.985Z,0.90
2023-01-01T05:46:48.800Z,0.90
2023-01-01T05:51:50.603Z,0.90
2023-01-01T05:56:52.492Z,0.90
2023-01-01T06:01:54.403Z,1.00
2023-01-01T06:06:56.406Z,1.00
2023-01-01T06:11:58.199Z,1.00
2023-01-01T06:17:00.135Z,1.00
2023-01-01T06:22:02.011Z,1.00
2023-01-01T06:27:03.883Z,1.10
2023-01-01T06:32:05.719Z,1.00
2023-01-01T06:37:07.495Z,1.00
2023-01-01T06:42:09.442Z,1.00
2023-01-01T06:47:11.311Z,1.00
2023-01-01T06:52:13.221Z,1.00
2023-01-01T06:57:15.935Z,1.00
2023-01-01T07:02:17.849Z,1.10
2023-01-01T07:07:19.866Z,1.10
2023-01-01T07:12:21.637Z,1.20
2023-01-01T07:17:23.445Z,1.20
2023-01-01T07:22:25.225Z,1.20
2023-01-01T07:27:27.035Z,1.20
2023-01-01T07:32:28.824Z,1.30
2023-01-01T07:37:30.753Z,1.40
2023-01-01T07:42:32.702Z,1.40
2023-01-01T07:47:34.557Z,1.50
2023-01-01T07:52:36.362Z,1.60
2023-01-01T07:57:38.251Z,1.70
2023-01-01T08:02:40.721Z,1.80
2023-01-01T08:07:49.273Z,1.90
2023-01-01T08:12:51.349Z,2.00
2023-01-01T08:18:01.802Z,2.00
2023-01-01T08:23:07.474Z,2.00
2023-01-01T08:28:10.343Z,2.10
2023-01-01T08:33:12.249Z,2.10
2023-01-01T08:38:14.098Z,2.60
2023-01-01T08:43:15.961Z,3.10
2023-01-01T08:48:17.778Z,3.90
2023-01-01T08:53:19.560Z,4.60
2023-01-01T09:05:06.763Z,5.60
2023-01-01T09:10:08.915Z,5.70
2023-01-01T09:15:15.931Z,5.70
2023-01-01T09:20:17.753Z,5.60
2023-01-01T09:25:19.617Z,5.50
2023-01-01T09:30:21.400Z,5.40
2023-01-01T09:35:23.227Z,5.50
2023-01-01T09:40:28.087Z,5.60
2023-01-01T09:45:32.012Z,6.00
2023-01-01T09:50:45.125Z,6.70
2023-01-01T09:55:56.863Z,7.70
2023-01-01T10:01:07.329Z,8.60
2023-01-01T10:06:28.201Z,9.40
2023-01-01T10:11:42.451Z,9.50
2023-01-01T10:16:47.173Z,9.20
2023-01-01T10:21:51.278Z,9.00
2023-01-01T10:26:54.156Z,9.00
2023-01-01T10:31:56.915Z,9.20
2023-01-01T10:37:00.228Z,9.20
2023-01-01T10:42:03.047Z,9.20
2023-01-01T10:47:24.443Z,9.30
2023-01-01T10:52:34.582Z,9.80
2023-01-01T10:57:40.726Z,10.20
2023-01-01T11:02:42.772Z,10.40
2023-01-01T11:07:45.330Z,10.40
2023-01-01T11:13:04.709Z,10.20
2023-01-01T11:18:15.901Z,10.20
2023-01-01T11:23:28.946Z,10.30
2023-01-01T11:28:34.848Z,10.60
2023-01-01T11:33:42.567Z,10.90
2023-01-01T11:38:44.342Z,11.10
2023-01-01T11:43:47.315Z,11.20
2023-01-01T11:48:50.687Z,11.20
2023-01-01T11:53:53.164Z,11.20
2023-01-01T11:59:13.980Z,11.20
2023-01-01T12:04:47.210Z,11.30
2023-01-01T12:10:02.271Z,11.40
2023-01-01T12:15:31.918Z,11.30
2023-01-01T12:20:40.718Z,11.30
2023-01-01T12:25:45.856Z,11.20
2023-01-01T12:30:53.742Z,11.10
2023-01-01T12:36:03.510Z,11.10
2023-01-01T12:41:14.394Z,11.10
2023-01-01T12:46:47.856Z,11.00
2023-01-01T12:51:58.834Z,10.90
2023-01-01T12:57:13.617Z,10.80
2023-01-01T13:02:33.951Z,10.70
2023-01-01T13:07:39.115Z,10.50
2023-01-01T13:12:41.042Z,10.40
2023-01-01T13:17:52.372Z,10.40
2023-01-01T13:22:54.197Z,10.30
2023-01-01T13:27:57.118Z,10.20
2023-01-01T13:33:29.635Z,10.00
2023-01-01T13:38:50.341Z,9.90
2023-01-01T13:43:53.343Z,9.80
2023-01-01T13:49:01.718Z,9.80
2023-01-01T13:54:29.929Z,9.70
2023-01-01T13:59:43.818Z,9.60
2023-01-01T14:05:01.367Z,9.60
2023-01-01T14:10:29.897Z,9.50
2023-01-01T14:15:42.210Z,9.40
2023-01-01T14:20:52.466Z,9.30
2023-01-01T14:25:54.587Z,9.20
2023-01-01T14:30:58.051Z,9.10
2023-01-01T14:36:02.970Z,9.00
2023-01-01T14:41:07.825Z,8.90
2023-01-01T14:46:16.074Z,8.70
2023-01-01T14:51:23.868Z,8.60
2023-01-01T14:56:29.197Z,8.50
2023-01-01T15:01:31.666Z,8.30
2023-01-01T15:13:34.225Z,8.00
2023-01-01T15:19:15.834Z,7.90
2023-01-01T15:24:33.362Z,7.80
2023-01-01T15:29:36.249Z,7.60
2023-01-01T15:34:59.181Z,7.40
2023-01-01T15:40:13.233Z,7.20
2023-01-01T15:45:36.761Z,7.10
2023-01-01T15:50:44.133Z,7.00
2023-01-01T15:56:00.487Z,6.80
2023-01-01T16:01:05.622Z,6.80
2023-01-01T16:06:08.013Z,6.70
2023-01-01T16:11:10.957Z,6.50
2023-01-01T16:16:31.197Z,6.40
2023-01-01T16:21:33.423Z,6.30
2023-01-01T16:26:35.198Z,6.30
2023-01-01T16:31:37.895Z,6.20
2023-01-01T16:36:41.312Z,6.20
2023-01-01T16:41:43.835Z,6.20
2023-01-01T16:46:45.737Z,6.20
2023-01-01T16:51:47.901Z,6.10
2023-01-01T16:56:49.765Z,6.10
2023-01-01T17:01:51.740Z,6.10
2023-01-01T17:06:54.345Z,6.10
2023-01-01T17:11:56.138Z,6.00
2023-01-01T17:16:57.940Z,5.80
2023-01-01T17:22:00.227Z,5.80
2023-01-01T17:27:02.119Z,5.70
2023-01-01T17:32:04.047Z,5.70
2023-01-01T17:37:05.838Z,5.60
2023-01-01T17:42:08.612Z,5.60
2023-01-01T17:47:10.406Z,5.50
2023-01-01T17:52:12.254Z,5.50
2023-01-01T17:57:14.879Z,5.40
2023-01-01T18:02:20.906Z,5.40
2023-01-01T18:07:22.948Z,5.30
2023-01-01T18:12:24.927Z,5.30
2023-01-01T18:17:26.714Z,5.30
2023-01-01T18:22:28.628Z,5.20
2023-01-01T18:27:32.826Z,5.20
2023-01-01T18:32:44.105Z,5.10
2023-01-01T18:37:45.982Z,5.10
2023-01-01T18:42:57.824Z,5.00
2023-01-01T18:48:01.333Z,5.00
2023-01-01T18:53:08.642Z,5.00
2023-01-01T18:58:24.502Z,5.00
2023-01-01T19:03:31.161Z,5.00
2023-01-01T19:08:34.418Z,5.00
2023-01-01T19:13:42.370Z,5.00
2023-01-01T19:18:46.135Z,5.00
2023-01-01T19:23:58.724Z,5.00
2023-01-01T19:29:15.459Z,5.00
2023-01-01T19:34:17.610Z,5.00
2023-01-01T19:39:20.449Z,5.00
2023-01-01T19:44:25.127Z,4.90
2023-01-01T19:49:27.898Z,4.90
2023-01-01T19:54:29.705Z,5.00
2023-01-01T19:59:34.500Z,5.00
2023-01-01T20:04:52.542Z,5.00
2023-01-01T20:09:54.431Z,5.00
2023-01-01T20:14:56.308Z,4.90
2023-01-01T20:19:58.658Z,4.90
2023-01-01T20:25:00.702Z,4.90
2023-01-01T20:30:02.484Z,4.80
2023-01-01T20:35:05.709Z,4.80
2023-01-01T20:40:10.661Z,4.80
2023-01-01T20:45:12.527Z,4.70
2023-01-01T20:50:14.434Z,4.70
2023-01-01T20:55:16.329Z,4.70
2023-01-01T21:00:18.357Z,4.70
2023-01-01T21:05:20.566Z,4.70
2023-01-01T21:10:22.384Z,4.70
2023-01-01T21:15:24.498Z,4.70
2023-01-01T21:20:37.458Z,4.70
2023-01-01T21:25:54.875Z,4.70
2023-01-01T21:30:57.255Z,4.70
2023-01-01T21:36:02.296Z,4.60
2023-01-01T21:41:15.825Z,4.70
2023-01-01T21:46:24.252Z,4.70
2023-01-01T21:51:28.696Z,4.80
2023-01-01T21:56:37.761Z,4.80
2023-01-01T22:01:42.978Z,4.80
2023-01-01T22:06:46.486Z,4.90
2023-01-01T22:11:49.356Z,4.90
2023-01-01T22:16:53.417Z,5.00
2023-01-01T22:22:00.580Z,5.00
2023-01-01T22:27:25.773Z,5.10
2023-01-01T22:32:29.486Z,5.10
2023-01-01T22:37:36.109Z,5.10
2023-01-01T22:42:40.252Z,5.10
2023-01-01T22:47:44.859Z,5.10
2023-01-01T22:52:46.732Z,5.10
2023-01-01T22:57:48.575Z,5.20
2023-01-01T23:02:50.602Z,5.20
2023-01-01T23:07:52.843Z,5.20
2023-01-01T23:12:54.668Z,5.20
2023-01-01T23:17:56.676Z,5.20
2023-01-01T23:22:58.612Z,5.20
2023-01-01T23:28:00.546Z,5.20
2023-01-01T23:33:02.386Z,5.20
2023-01-01T23:38:14.470Z,5.20
2023-01-01T23:43:16.317Z,5.20
2023-01-01T23:48:18.398Z,5.20
2023-01-01T23:53:20.225Z,5.20
2023-01-01T23:58:22.653Z,5.30
